Time;durP1;ratioP1;P1;durP2;ratioP2;P2;SDS_P1;SDS_P2;PMS_P1;PMS_P2;Temp;Humidity;BMP_temperature;BMP_pressure;BME280_temperature;BME280_humidity;BME280_pressure;Samples;Min_cycle;Max_cycle;Signal;HPM_P1;HPM_P2
2022/09/29 00:01:46;;;;;;;0.50;0.50;;;8.90;99.90;;;;;;4382823;32;20853;-78
2022/09/29 00:04:12;;;;;;;0.45;0.45;;;8.90;99.90;;;;;;4356444;32;20138;-77
2022/09/29 00:06:38;;;;;;;1.90;0.70;;;8.80;99.90;;;;;;4366600;32;20077;-78
2022/09/29 00:09:03;;;;;;;0.73;0.73;;;8.90;99.90;;;;;;4382446;32;20062;-78
2022/09/29 00:11:29;;;;;;;0.37;0.37;;;8.80;99.90;;;;;;4382987;32;20148;-77
2022/09/29 00:13:54;;;;;;;2.17;1.17;;;8.80;99.90;;;;;;4383292;32;20522;-77
2022/09/29 00:16:20;;;;;;;0.50;0.50;;;8.80;99.90;;;;;;4384962;32;20082;-77
2022/09/29 00:18:45;;;;;;;0.40;0.40;;;8.80;99.90;;;;;;4372493;32;20087;-77
2022/09/29 00:21:15;;;;;;;0.30;0.30;;;8.70;99.90;;;;;;4383021;32;22055;-78
2022/09/29 00:23:41;;;;;;;0.90;0.90;;;8.60;99.90;;;;;;4383575;32;20086;-77
2022/09/29 00:26:09;;;;;;;0.40;0.40;;;8.60;99.90;;;;;;4386588;32;20070;-78
2022/09/29 00:28:37;;;;;;;0.40;0.40;;;8.60;99.90;;;;;;4383881;32;20815;-77
2022/09/29 00:31:04;;;;;;;1.30;0.77;;;8.50;99.90;;;;;;4385782;32;20099;-77
2022/09/29 00:33:31;;;;;;;0.80;0.62;;;8.40;99.90;;;;;;4369397;32;20416;-76
2022/09/29 00:35:59;;;;;;;0.40;0.40;;;8.30;99.90;;;;;;4355061;32;20723;-78
2022/09/29 00:38:25;;;;;;;0.52;0.52;;;8.30;99.90;;;;;;4386659;32;20066;-77
2022/09/29 00:40:51;;;;;;;0.40;0.40;;;8.30;99.90;;;;;;4385024;32;20086;-78
2022/09/29 00:43:23;;;;;;;2.78;0.85;;;8.30;99.90;;;;;;4385840;32;20098;-77
2022/09/29 00:45:53;;;;;;;3.50;0.68;;;8.40;99.90;;;;;;4385215;32;20082;-78
2022/09/29 00:48:29;;;;;;;0.40;0.40;;;8.30;99.90;;;;;;4370614;32;20081;-78
2022/09/29 00:50:56;;;;;;;0.40;0.40;;;8.40;99.90;;;;;;4385490;32;20167;-78
2022/09/29 00:53:23;;;;;;;0.40;0.40;;;8.40;99.90;;;;;;4384281;32;20090;-77
2022/09/29 00:55:56;;;;;;;1.27;0.68;;;8.40;99.90;;;;;;4383697;32;20438;-77
2022/09/29 00:58:33;;;;;;;0.57;0.57;;;8.40;99.90;;;;;;4390939;32;20066;-78
2022/09/29 01:00:59;;;;;;;0.30;0.30;;;8.40;99.90;;;;;;4390213;32;20098;-77
2022/09/29 01:03:29;;;;;;;0.40;0.40;;;8.50;99.90;;;;;;4380876;32;20085;-76
2022/09/29 01:06:00;;;;;;;1.37;0.55;;;8.40;99.90;;;;;;4359515;32;20097;-77
2022/09/29 01:08:45;;;;;;;;;;;8.40;99.90;;;;;;4393800;32;20062;-78
2022/09/29 01:11:12;;;;;;;0.75;0.60;;;8.40;99.90;;;;;;4388686;32;19961;-78
2022/09/29 01:13:40;;;;;;;0.52;0.52;;;8.50;99.90;;;;;;4394654;32;20066;-77
2022/09/29 01:16:06;;;;;;;0.50;0.50;;;8.50;99.90;;;;;;4388367;32;20622;-78
2022/09/29 01:18:31;;;;;;;0.35;0.35;;;8.50;99.90;;;;;;4378595;32;20124;-78
2022/09/29 01:21:14;;;;;;;0.50;0.50;;;8.50;99.90;;;;;;4390959;32;20156;-77
2022/09/29 01:24:08;;;;;;;0.40;0.40;;;8.50;99.90;;;;;;4392979;32;20161;-77
2022/09/29 01:26:54;;;;;;;0.45;0.45;;;8.50;99.90;;;;;;4382131;32;20097;-78
2022/09/29 01:29:41;;;;;;;0.93;0.93;;;8.50;99.90;;;;;;4389486;32;20085;-77
2022/09/29 01:32:15;;;;;;;0.45;0.45;;;8.60;99.90;;;;;;4380536;32;20489;-77
2022/09/29 01:34:49;;;;;;;0.40;0.40;;;8.50;99.90;;;;;;4357165;32;20573;-77
2022/09/29 01:37:25;;;;;;;0.45;0.45;;;8.50;99.90;;;;;;4383785;32;20074;-77
2022/09/29 01:40:05;;;;;;;0.90;0.70;;;8.60;99.90;;;;;;4392574;32;20117;-77
2022/09/29 01:42:38;;;;;;;0.43;0.43;;;8.60;99.90;;;;;;4390003;32;20069;-77
2022/09/29 01:45:28;;;;;;;0.45;0.45;;;8.60;99.90;;;;;;4389541;32;20081;-78
2022/09/29 01:48:00;;;;;;;0.40;0.40;;;8.50;99.90;;;;;;4370830;32;20090;-77
2022/09/29 01:50:31;;;;;;;1.17;0.85;;;8.50;99.90;;;;;;4388235;32;20456;-77
2022/09/29 01:53:03;;;;;;;0.45;0.45;;;8.40;99.90;;;;;;4392243;32;20086;-77
2022/09/29 01:55:34;;;;;;;0.60;0.60;;;8.40;99.90;;;;;;4391063;32;20082;-77
2022/09/29 01:58:04;;;;;;;0.30;0.30;;;8.40;99.90;;;;;;4388522;32;20545;-77
2022/09/29 02:00:36;;;;;;;0.50;0.50;;;8.30;99.90;;;;;;4391043;32;20546;-77
2022/09/29 02:03:08;;;;;;;6.97;2.47;;;8.30;99.90;;;;;;4383765;32;20138;-76
2022/09/29 02:05:43;;;;;;;0.50;0.50;;;8.30;99.90;;;;;;4356413;32;20106;-78
2022/09/29 02:08:15;;;;;;;0.37;0.37;;;8.40;99.90;;;;;;4391847;32;20098;-77
2022/09/29 02:10:49;;;;;;;1.65;0.60;;;8.40;99.90;;;;;;4393150;32;20058;-78
2022/09/29 02:13:17;;;;;;;0.73;0.73;;;8.40;99.90;;;;;;4391961;32;20137;-78
2022/09/29 02:15:47;;;;;;;0.32;0.32;;;8.30;99.90;;;;;;4391580;32;20054;-77
2022/09/29 02:18:18;;;;;;;2.12;0.88;;;8.30;99.90;;;;;;4378427;32;20143;-76
2022/09/29 02:20:46;;;;;;;0.40;0.40;;;8.40;99.90;;;;;;4392233;32;20161;-77
2022/09/29 02:23:11;;;;;;;10.27;0.73;;;8.50;99.90;;;;;;4392894;32;20416;-77
2022/09/29 02:25:38;;;;;;;0.40;0.40;;;8.60;99.90;;;;;;4394262;32;20057;-77
2022/09/29 02:28:05;;;;;;;0.40;0.40;;;8.60;99.90;;;;;;4395707;32;20137;-79
2022/09/29 02:30:32;;;;;;;0.50;0.50;;;8.60;99.90;;;;;;4392980;32;20051;-77
2022/09/29 02:32:57;;;;;;;0.30;0.30;;;8.50;99.90;;;;;;4385413;32;20066;-77
2022/09/29 02:35:28;;;;;;;0.60;0.60;;;8.50;99.90;;;;;;4354540;32;20149;-78
2022/09/29 02:38:05;;;;;;;4.35;0.62;;;8.50;99.90;;;;;;4389720;32;20085;-77
2022/09/29 02:40:47;;;;;;;0.65;0.60;;;8.50;99.90;;;;;;4392610;32;20419;-77
2022/09/29 02:43:53;;;;;;;0.50;0.50;;;8.40;99.90;;;;;;4392789;32;20186;-77
2022/09/29 02:46:34;;;;;;;0.30;0.30;;;8.30;99.90;;;;;;4378501;32;20098;-77
2022/09/29 02:49:24;;;;;;;0.37;0.37;;;8.30;99.90;;;;;;4381040;32;20439;-79
2022/09/29 02:51:57;;;;;;;1.20;0.68;;;8.40;99.90;;;;;;4388528;32;20110;-78
2022/09/29 02:54:38;;;;;;;0.47;0.47;;;8.60;99.90;;;;;;4388848;32;20136;-78
2022/09/29 02:57:11;;;;;;;;;;;8.50;99.90;;;;;;4391431;32;20071;-77
2022/09/29 02:59:49;;;;;;;1.05;0.82;;;8.50;99.90;;;;;;4385848;32;19978;-77
2022/09/29 03:02:21;;;;;;;0.37;0.37;;;8.60;99.90;;;;;;4382980;32;20154;-76
2022/09/29 03:04:47;;;;;;;0.50;0.50;;;8.50;99.90;;;;;;4349804;32;20565;-76
2022/09/29 03:07:12;;;;;;;0.40;0.40;;;8.50;99.90;;;;;;4379549;32;20069;-77
2022/09/29 03:09:38;;;;;;;0.73;0.73;;;8.50;99.90;;;;;;4384918;32;20435;-77
2022/09/29 03:12:03;;;;;;;0.37;0.37;;;8.50;99.90;;;;;;4385145;32;20082;-77
2022/09/29 03:14:29;;;;;;;0.60;0.60;;;8.50;99.90;;;;;;4390682;32;20540;-77
2022/09/29 03:16:54;;;;;;;0.55;0.55;;;8.50;99.90;;;;;;4384505;32;20660;-77
2022/09/29 03:19:20;;;;;;;0.52;0.52;;;8.50;99.90;;;;;;4377447;32;20528;-77
2022/09/29 03:21:45;;;;;;;1.02;0.60;;;8.60;99.90;;;;;;4384865;32;20090;-78
2022/09/29 03:24:11;;;;;;;0.47;0.40;;;8.70;99.90;;;;;;4384416;32;20160;-77
2022/09/29 03:26:36;;;;;;;0.75;0.62;;;8.70;99.90;;;;;;4383942;32;20170;-77
2022/09/29 03:29:02;;;;;;;1.37;0.80;;;8.60;99.90;;;;;;4385876;32;20098;-77
2022/09/29 03:31:27;;;;;;;0.80;0.68;;;8.60;99.90;;;;;;4383670;32;20130;-78
2022/09/29 03:33:53;;;;;;;0.57;0.52;;;8.60;99.90;;;;;;4363865;32;20070;-76
2022/09/29 03:36:18;;;;;;;0.55;0.55;;;8.60;99.90;;;;;;4364625;32;20106;-78
2022/09/29 03:38:45;;;;;;;0.93;0.93;;;8.70;99.90;;;;;;4386069;32;20086;-77
2022/09/29 03:41:11;;;;;;;1.00;0.88;;;8.70;99.90;;;;;;4381961;32;20095;-77
2022/09/29 03:43:36;;;;;;;0.35;0.35;;;8.70;99.90;;;;;;4384599;32;20090;-77
2022/09/29 03:46:02;;;;;;;1.95;0.70;;;8.70;99.90;;;;;;4386154;32;20073;-78
2022/09/29 03:48:30;;;;;;;0.57;0.57;;;8.70;99.90;;;;;;4376990;32;20237;-77
2022/09/29 03:50:55;;;;;;;0.32;0.32;;;8.70;99.90;;;;;;4389159;32;20070;-77
2022/09/29 03:53:21;;;;;;;0.88;0.55;;;8.60;99.90;;;;;;4389197;32;20114;-78
2022/09/29 03:55:47;;;;;;;1.40;0.60;;;8.70;99.90;;;;;;4389348;32;20062;-77
2022/09/29 03:58:13;;;;;;;1.08;0.73;;;8.60;99.90;;;;;;4392151;32;20107;-77
2022/09/29 04:00:39;;;;;;;0.80;0.60;;;8.60;99.90;;;;;;4386767;32;20085;-78
2022/09/29 04:03:05;;;;;;;4.37;0.73;;;8.70;99.90;;;;;;4378739;32;20074;-76
2022/09/29 04:05:31;;;;;;;1.12;0.62;;;8.60;99.90;;;;;;4352298;32;20525;-78
2022/09/29 04:07:56;;;;;;;0.50;0.50;;;8.60;99.90;;;;;;4389546;32;20078;-77
2022/09/29 04:10:22;;;;;;;0.50;0.50;;;8.60;99.90;;;;;;4388902;32;20083;-79
2022/09/29 04:12:47;;;;;;;1.45;0.70;;;8.70;99.90;;;;;;4386669;32;20128;-78
2022/09/29 04:15:13;;;;;;;0.57;0.57;;;8.70;99.90;;;;;;4389039;32;20078;-77
2022/09/29 04:17:38;;;;;;;0.50;0.50;;;8.60;99.90;;;;;;4380078;32;20980;-77
2022/09/29 04:20:04;;;;;;;0.62;0.52;;;8.60;99.90;;;;;;4381739;32;20149;-76
2022/09/29 04:22:29;;;;;;;0.52;0.52;;;8.60;99.90;;;;;;4366917;32;20098;-76
2022/09/29 04:24:55;;;;;;;4.43;1.35;;;8.50;99.90;;;;;;4339623;32;20109;-76
2022/09/29 04:27:21;;;;;;;0.37;0.37;;;8.60;99.90;;;;;;4332815;32;20094;-76
2022/09/29 04:29:47;;;;;;;19.02;1.00;;;8.50;99.90;;;;;;4330350;32;20062;-77
2022/09/29 04:32:13;;;;;;;0.55;0.55;;;8.50;99.90;;;;;;4325893;32;20069;-76
2022/09/29 04:34:38;;;;;;;0.68;0.57;;;8.50;99.90;;;;;;4339043;32;20158;-76
2022/09/29 04:37:06;;;;;;;0.50;0.50;;;8.60;99.90;;;;;;4378456;32;20543;-78
2022/09/29 04:39:31;;;;;;;0.43;0.43;;;8.60;99.90;;;;;;4386842;32;20106;-77
2022/09/29 04:41:57;;;;;;;1.02;0.93;;;8.60;99.90;;;;;;4387375;32;20739;-78
2022/09/29 04:44:23;;;;;;;0.80;0.73;;;8.60;99.90;;;;;;4389996;32;20125;-78
2022/09/29 04:46:50;;;;;;;0.75;0.75;;;8.60;99.90;;;;;;4386423;32;20502;-76
2022/09/29 04:49:17;;;;;;;1.95;0.75;;;8.50;99.90;;;;;;4376912;32;20090;-79
2022/09/29 04:51:42;;;;;;;0.65;0.65;;;8.60;99.90;;;;;;4380950;32;20513;-77
2022/09/29 04:54:08;;;;;;;0.65;0.65;;;8.60;99.90;;;;;;4344956;32;20328;-76
2022/09/29 04:56:33;;;;;;;0.60;0.60;;;8.70;99.90;;;;;;4367057;32;20598;-77
2022/09/29 04:58:59;;;;;;;1.17;1.02;;;8.60;99.90;;;;;;4388074;32;21420;-77
2022/09/29 05:01:24;;;;;;;1.37;0.82;;;8.50;99.90;;;;;;4378465;32;21015;-75
2022/09/29 05:03:50;;;;;;;0.47;0.47;;;8.40;99.90;;;;;;4352564;32;20106;-76
2022/09/29 05:06:16;;;;;;;0.40;0.40;;;8.40;99.90;;;;;;4332523;32;20372;-75
2022/09/29 05:08:42;;;;;;;2.10;0.80;;;8.30;99.90;;;;;;4345870;32;20406;-75
2022/09/29 05:11:09;;;;;;;0.60;0.60;;;8.40;99.90;;;;;;4339489;32;20402;-75
2022/09/29 05:13:36;;;;;;;4.40;0.90;;;8.40;99.90;;;;;;4335654;32;20097;-75
2022/09/29 05:16:02;;;;;;;0.77;0.65;;;8.50;99.90;;;;;;4353084;32;20107;-75
2022/09/29 05:18:28;;;;;;;0.52;0.52;;;8.40;99.90;;;;;;4309955;32;21091;-75
2022/09/29 05:20:54;;;;;;;0.88;0.88;;;8.40;99.90;;;;;;4289903;32;20410;-75
2022/09/29 05:23:20;;;;;;;0.40;0.40;;;8.50;99.90;;;;;;4263129;32;20469;-75
2022/09/29 05:25:45;;;;;;;0.55;0.55;;;8.50;99.90;;;;;;4267065;32;20223;-76
2022/09/29 05:28:11;;;;;;;0.50;0.50;;;8.60;99.90;;;;;;4282582;32;20366;-74
2022/09/29 05:30:37;;;;;;;0.60;0.60;;;8.50;99.90;;;;;;4273165;32;20270;-75
2022/09/29 05:33:04;;;;;;;1.20;1.05;;;8.50;99.90;;;;;;4309803;32;20145;-75
2022/09/29 05:35:30;;;;;;;1.17;0.68;;;8.60;99.90;;;;;;4288884;32;20434;-75
2022/09/29 05:37:55;;;;;;;0.60;0.60;;;8.60;99.90;;;;;;4300992;32;20236;-75
2022/09/29 05:40:23;;;;;;;0.57;0.57;;;8.60;99.90;;;;;;4308744;32;20119;-75
2022/09/29 05:42:49;;;;;;;2.22;1.00;;;8.60;99.90;;;;;;4328186;32;20361;-76
2022/09/29 05:45:15;;;;;;;8.70;1.10;;;8.50;99.90;;;;;;4340380;32;20420;-76
2022/09/29 05:47:42;;;;;;;2.67;1.17;;;8.60;99.90;;;;;;4348500;32;20709;-76
2022/09/29 05:50:08;;;;;;;0.50;0.50;;;8.60;99.90;;;;;;4350075;32;20310;-76
2022/09/29 05:52:33;;;;;;;0.60;0.60;;;8.60;99.90;;;;;;4343927;32;20268;-75
2022/09/29 05:54:59;;;;;;;1.35;1.10;;;8.60;99.90;;;;;;4353399;32;20230;-78
2022/09/29 05:57:24;;;;;;;0.62;0.62;;;8.50;99.90;;;;;;4363081;32;20666;-78
2022/09/29 05:59:50;;;;;;;0.95;0.82;;;8.50;99.90;;;;;;4360406;32;20440;-75
2022/09/29 06:02:17;;;;;;;1.48;0.80;;;8.40;99.90;;;;;;4341620;32;21184;-75
2022/09/29 06:04:43;;;;;;;2.03;1.42;;;8.30;99.90;;;;;;4335823;32;20106;-75
2022/09/29 06:07:09;;;;;;;0.85;0.65;;;8.30;99.90;;;;;;4347451;32;20348;-75
2022/09/29 06:09:35;;;;;;;0.60;0.60;;;8.40;99.90;;;;;;4363032;32;20129;-76
2022/09/29 06:12:02;;;;;;;3.30;1.58;;;8.50;99.90;;;;;;4368347;32;20198;-76
2022/09/29 06:14:27;;;;;;;0.88;0.82;;;8.60;99.90;;;;;;4369853;32;20066;-75
2022/09/29 06:16:53;;;;;;;0.62;0.62;;;8.60;99.90;;;;;;4376273;32;20565;-76
2022/09/29 06:19:19;;;;;;;3.37;1.55;;;8.60;99.90;;;;;;4366903;32;20646;-77
2022/09/29 06:21:45;;;;;;;0.73;0.73;;;8.60;99.90;;;;;;4356795;32;20629;-76
2022/09/29 06:24:10;;;;;;;1.20;0.95;;;8.70;99.90;;;;;;4360237;32;20143;-76
2022/09/29 06:26:36;;;;;;;0.50;0.50;;;8.70;99.90;;;;;;4371423;32;20522;-77
2022/09/29 06:29:03;;;;;;;8.20;3.12;;;8.70;99.90;;;;;;4372801;32;20216;-77
2022/09/29 06:31:29;;;;;;;1.83;1.27;;;8.70;99.90;;;;;;4350366;32;20109;-77
2022/09/29 06:34:00;;;;;;;0.62;0.62;;;8.70;99.90;;;;;;4343816;32;20811;-76
2022/09/29 06:37:45;;;;;;;0.93;0.93;;;8.70;99.90;;;;;;4347012;32;20736;-77
2022/09/29 06:39:30;;;;;;;1.30;0.93;;;8.70;99.90;;;;;;4360482;32;20394;-75
2022/09/29 06:41:56;;;;;;;0.80;0.80;;;8.70;99.90;;;;;;4368985;32;20816;-76
2022/09/29 06:44:24;;;;;;;1.02;1.00;;;8.70;99.90;;;;;;4369527;32;20093;-76
2022/09/29 06:46:50;;;;;;;0.68;0.68;;;8.80;99.90;;;;;;4370844;32;20126;-78
2022/09/29 06:49:18;;;;;;;1.77;0.82;;;8.80;99.90;;;;;;4363221;32;20352;-75
2022/09/29 06:51:44;;;;;;;0.88;0.82;;;8.80;99.90;;;;;;4358618;32;20209;-77
2022/09/29 06:54:12;;;;;;;1.95;0.60;;;8.80;99.90;;;;;;4359505;32;20386;-75
2022/09/29 06:56:38;;;;;;;1.90;1.52;;;8.70;99.90;;;;;;4367829;32;20534;-77
2022/09/29 06:59:04;;;;;;;0.70;0.70;;;8.80;99.90;;;;;;4366361;32;20944;-76
2022/09/29 07:01:30;;;;;;;1.48;0.90;;;8.80;99.90;;;;;;4350250;32;20363;-76
2022/09/29 07:03:59;;;;;;;0.50;0.50;;;8.80;99.90;;;;;;4340132;32;21174;-77
2022/09/29 07:06:28;;;;;;;1.55;0.98;;;8.90;99.90;;;;;;4351340;32;20725;-76
2022/09/29 07:08:55;;;;;;;0.68;0.68;;;9.00;99.90;;;;;;4359767;32;20065;-76
2022/09/29 07:11:20;;;;;;;0.93;0.68;;;9.00;99.90;;;;;;4362338;32;20264;-75
2022/09/29 07:13:46;;;;;;;4.47;1.65;;;9.10;99.90;;;;;;4367469;32;20461;-75
2022/09/29 07:16:13;;;;;;;2.60;1.05;;;9.10;99.90;;;;;;4362396;32;20518;-76
2022/09/29 07:18:41;;;;;;;1.73;0.80;;;9.00;99.90;;;;;;4357603;32;20481;-75
2022/09/29 07:21:09;;;;;;;0.90;0.85;;;9.00;99.90;;;;;;4339539;32;20830;-75
2022/09/29 07:23:35;;;;;;;0.80;0.80;;;9.10;99.90;;;;;;4348934;32;20330;-75
2022/09/29 07:26:02;;;;;;;0.68;0.68;;;9.00;99.90;;;;;;4364669;32;20389;-76
2022/09/29 07:28:28;;;;;;;0.52;0.52;;;9.10;99.90;;;;;;4359159;32;20574;-75
2022/09/29 07:31:09;;;;;;;1.98;1.02;;;9.00;99.90;;;;;;4343867;32;20177;-76
2022/09/29 07:33:34;;;;;;;5.18;1.37;;;9.10;99.90;;;;;;4335883;32;20329;-77
2022/09/29 07:36:00;;;;;;;1.10;1.00;;;9.20;99.90;;;;;;4335248;32;20082;-78
2022/09/29 07:38:29;;;;;;;0.37;0.37;;;9.20;99.90;;;;;;4346212;32;20078;-75
2022/09/29 07:41:06;;;;;;;2.22;1.23;;;9.30;99.90;;;;;;4355524;32;20374;-75
2022/09/29 07:43:32;;;;;;;0.65;0.65;;;9.30;99.90;;;;;;4356540;32;20098;-76
2022/09/29 07:45:59;;;;;;;2.25;1.12;;;9.30;99.90;;;;;;4359216;32;20184;-76
2022/09/29 07:48:27;;;;;;;0.82;0.75;;;9.40;99.90;;;;;;4356036;32;20245;-75
2022/09/29 07:51:01;;;;;;;0.68;0.68;;;9.40;99.90;;;;;;4333796;32;20102;-75
2022/09/29 07:53:26;;;;;;;4.18;0.57;;;9.50;99.90;;;;;;4349231;32;20123;-76
2022/09/29 07:55:52;;;;;;;1.62;0.90;;;9.50;99.90;;;;;;4361455;32;20668;-76
2022/09/29 07:58:18;;;;;;;0.45;0.45;;;9.50;99.90;;;;;;4366610;32;20507;-77
2022/09/29 08:00:43;;;;;;;1.50;1.02;;;9.60;99.90;;;;;;4346661;32;21041;-75
2022/09/29 08:03:09;;;;;;;1.75;0.90;;;9.60;99.90;;;;;;4341487;32;20812;-75
2022/09/29 08:05:34;;;;;;;1.10;0.98;;;9.60;99.90;;;;;;4337370;32;20269;-76
2022/09/29 08:08:02;;;;;;;3.55;0.70;;;9.70;99.90;;;;;;4350245;32;20086;-75
2022/09/29 08:10:29;;;;;;;0.50;0.50;;;9.70;99.90;;;;;;4359826;32;20082;-76
2022/09/29 08:12:55;;;;;;;0.68;0.68;;;9.70;99.90;;;;;;4361937;32;20665;-75
2022/09/29 08:15:22;;;;;;;1.17;1.00;;;9.60;99.90;;;;;;4360631;32;20207;-75
2022/09/29 08:17:52;;;;;;;3.53;1.48;;;9.70;99.90;;;;;;4363346;32;20150;-76
2022/09/29 08:20:18;;;;;;;0.77;0.75;;;9.70;99.90;;;;;;4345551;32;20070;-76
2022/09/29 08:22:43;;;;;;;1.87;0.80;;;9.80;99.90;;;;;;4344997;32;20186;-74
2022/09/29 08:25:09;;;;;;;0.68;0.68;;;9.90;99.90;;;;;;4357686;32;20090;-75
2022/09/29 08:27:34;;;;;;;0.70;0.70;;;10.00;99.90;;;;;;4363008;32;20090;-76
2022/09/29 08:30:01;;;;;;;2.72;1.52;;;10.10;99.90;;;;;;4346416;32;20232;-76
2022/09/29 08:32:26;;;;;;;0.95;0.52;;;10.20;99.90;;;;;;4350663;32;122485;-75
2022/09/29 08:34:52;;;;;;;0.57;0.57;;;10.30;99.90;;;;;;4345555;32;20338;-74
2022/09/29 08:37:17;;;;;;;0.93;0.90;;;10.30;99.90;;;;;;4359141;32;20410;-75
2022/09/29 08:39:43;;;;;;;4.05;0.95;;;10.30;99.90;;;;;;4358532;32;20126;-75
2022/09/29 08:42:31;;;;;;;6.22;1.33;;;10.40;99.90;;;;;;4364869;32;20834;-75
2022/09/29 08:45:02;;;;;;;1.20;0.70;;;10.50;99.90;;;;;;4361729;32;20085;-76
2022/09/29 08:47:39;;;;;;;0.45;0.45;;;10.70;99.90;;;;;;4368198;32;20118;-77
2022/09/29 08:50:13;;;;;;;1.80;0.82;;;10.80;99.90;;;;;;4353952;32;20681;-76
2022/09/29 08:52:43;;;;;;;1.40;1.30;;;10.80;99.90;;;;;;4345667;32;20653;-75
2022/09/29 08:55:18;;;;;;;0.50;0.50;;;10.90;99.90;;;;;;4360863;32;21005;-77
2022/09/29 08:57:46;;;;;;;0.70;0.70;;;11.00;99.90;;;;;;4367527;32;20106;-77
2022/09/29 09:00:17;;;;;;;3.33;1.10;;;11.00;99.90;;;;;;4351430;32;20090;-77
2022/09/29 09:03:04;;;;;;;0.80;0.80;;;10.90;99.90;;;;;;4352888;32;20162;-74
2022/09/29 09:05:49;;;;;;;0.80;0.80;;;11.00;99.90;;;;;;4337667;32;21372;-76
2022/09/29 09:08:33;;;;;;;1.90;1.10;;;11.10;99.90;;;;;;4363206;32;20085;-77
2022/09/29 09:11:20;;;;;;;1.15;1.00;;;11.20;99.90;;;;;;4366184;32;20098;-79
2022/09/29 09:14:26;;;;;;;1.27;0.70;;;11.20;99.90;;;;;;4368085;32;20421;-76
2022/09/29 09:17:04;;;;;;;1.85;1.33;;;11.20;99.90;;;;;;4356162;32;20094;-78
2022/09/29 09:19:54;;;;;;;1.23;0.70;;;11.30;99.90;;;;;;4358666;32;20190;-75
2022/09/29 09:22:22;;;;;;;3.72;0.95;;;11.40;99.90;;;;;;4346915;32;20535;-77
2022/09/29 09:25:14;;;;;;;1.62;0.90;;;11.50;99.90;;;;;;4328607;32;20196;-75
2022/09/29 09:27:46;;;;;;;1.98;0.98;;;11.60;99.90;;;;;;4330207;32;20102;-75
2022/09/29 09:30:15;;;;;;;0.57;0.57;;;11.70;99.90;;;;;;4326960;32;20165;-75
2022/09/29 09:32:51;;;;;;;0.62;0.62;;;11.80;99.90;;;;;;4332464;32;20085;-75
2022/09/29 09:35:24;;;;;;;1.45;1.02;;;11.90;99.90;;;;;;4336761;32;20857;-75
2022/09/29 09:37:54;;;;;;;1.17;0.73;;;11.80;99.90;;;;;;4344504;32;20205;-75
2022/09/29 09:40:24;;;;;;;1.48;0.50;;;11.80;99.90;;;;;;4353130;32;20262;-76
2022/09/29 09:42:57;;;;;;;2.70;1.50;;;11.80;99.90;;;;;;4342769;32;21162;-75
2022/09/29 09:45:29;;;;;;;0.77;0.77;;;11.90;99.90;;;;;;4345025;32;20220;-76
2022/09/29 09:48:18;;;;;;;1.42;0.90;;;12.00;99.90;;;;;;4345471;32;20265;-75
2022/09/29 09:50:45;;;;;;;0.60;0.60;;;12.00;99.90;;;;;;4339392;32;20130;-75
2022/09/29 09:53:17;;;;;;;3.92;1.15;;;12.20;99.90;;;;;;4333906;32;20131;-75
2022/09/29 09:55:49;;;;;;;1.55;0.95;;;12.30;99.90;;;;;;4334884;32;20126;-75
2022/09/29 09:58:30;;;;;;;2.12;1.70;;;12.40;99.90;;;;;;4348901;32;20134;-75
2022/09/29 10:01:00;;;;;;;0.40;0.40;;;12.40;99.90;;;;;;4343245;32;20101;-76
2022/09/29 10:03:28;;;;;;;0.88;0.82;;;12.40;99.90;;;;;;4336788;32;21268;-76
2022/09/29 10:05:53;;;;;;;0.37;0.37;;;12.10;99.90;;;;;;4336116;32;20300;-76
2022/09/29 10:08:41;;;;;;;9.77;1.23;;;12.00;99.90;;;;;;4352739;32;20216;-75
2022/09/29 10:11:25;;;;;;;0.77;0.77;;;12.20;99.90;;;;;;4344317;32;20356;-76
2022/09/29 10:14:00;;;;;;;1.55;1.02;;;12.30;99.90;;;;;;4350166;32;20700;-76
2022/09/29 10:16:32;;;;;;;0.60;0.60;;;12.30;99.90;;;;;;4351617;32;20086;-75
2022/09/29 10:18:58;;;;;;;0.40;0.40;;;12.40;99.90;;;;;;4342789;32;20109;-76
2022/09/29 10:21:43;;;;;;;0.40;0.40;;;12.40;99.90;;;;;;4345026;32;20208;-76
2022/09/29 10:24:30;;;;;;;0.47;0.47;;;12.50;99.90;;;;;;4331588;32;21119;-76
2022/09/29 10:26:58;;;;;;;0.68;0.68;;;12.60;99.90;;;;;;4346020;32;20119;-77
2022/09/29 10:29:33;;;;;;;0.70;0.70;;;12.60;99.90;;;;;;4355887;32;20617;-77
2022/09/29 10:32:06;;;;;;;1.02;0.50;;;12.50;99.90;;;;;;4347230;32;20094;-77
2022/09/29 10:34:35;;;;;;;0.40;0.40;;;12.60;99.90;;;;;;4344257;32;20097;-76
2022/09/29 10:37:04;;;;;;;1.08;0.75;;;12.70;99.90;;;;;;4355239;32;20115;-76
2022/09/29 10:39:43;;;;;;;0.60;0.60;;;12.90;99.90;;;;;;4360486;32;21210;-77
2022/09/29 10:42:31;;;;;;;0.60;0.60;;;13.00;99.90;;;;;;4355980;32;20099;-75
2022/09/29 10:45:07;;;;;;;0.50;0.50;;;13.00;99.90;;;;;;4357741;32;20078;-78
2022/09/29 10:47:33;;;;;;;0.57;0.57;;;13.10;99.90;;;;;;4350398;32;20295;-75
2022/09/29 10:50:10;;;;;;;0.60;0.60;;;13.30;99.90;;;;;;4344228;32;20274;-75
2022/09/29 10:52:36;;;;;;;0.60;0.60;;;13.60;99.90;;;;;;4339188;32;20219;-77
2022/09/29 10:55:03;;;;;;;0.40;0.40;;;13.70;99.90;;;;;;4325273;32;20209;-77
2022/09/29 10:57:32;;;;;;;0.85;0.85;;;13.90;99.90;;;;;;4351243;32;20188;-76
2022/09/29 10:59:58;;;;;;;0.43;0.43;;;14.00;99.90;;;;;;4342121;32;20099;-77
2022/09/29 11:02:30;;;;;;;0.40;0.40;;;14.10;99.90;;;;;;4348357;32;21091;-76
2022/09/29 11:05:00;;;;;;;1.75;0.68;;;13.90;99.90;;;;;;4326107;32;20097;-76
2022/09/29 11:07:28;;;;;;;0.73;0.70;;;13.80;99.90;;;;;;4348103;32;20089;-76
2022/09/29 11:09:54;;;;;;;0.50;0.50;;;13.60;99.90;;;;;;4345460;32;20187;-77
2022/09/29 11:12:26;;;;;;;0.65;0.65;;;13.60;99.90;;;;;;4347970;32;20103;-76
2022/09/29 11:14:52;;;;;;;0.73;0.73;;;13.60;99.90;;;;;;4349431;32;21123;-76
2022/09/29 11:17:26;;;;;;;0.50;0.50;;;13.60;99.90;;;;;;4353284;32;20198;-76
2022/09/29 11:19:54;;;;;;;0.50;0.50;;;13.60;99.90;;;;;;4333828;32;20404;-77
2022/09/29 11:22:49;;;;;;;0.50;0.50;;;13.60;99.90;;;;;;4351947;32;20594;-77
2022/09/29 11:25:21;;;;;;;0.95;0.62;;;13.70;99.90;;;;;;4346618;32;20174;-76
2022/09/29 11:28:17;;;;;;;0.50;0.50;;;13.70;99.90;;;;;;4354195;32;20082;-75
2022/09/29 11:31:14;;;;;;;1.85;0.57;;;13.80;99.90;;;;;;4346172;32;20679;-77
2022/09/29 11:33:56;;;;;;;0.30;0.30;;;13.80;99.90;;;;;;4338487;32;20106;-76
2022/09/29 11:36:44;;;;;;;0.43;0.43;;;13.80;99.90;;;;;;4355811;32;20181;-75
2022/09/29 11:39:49;;;;;;;0.40;0.40;;;13.90;99.90;;;;;;4354085;32;20146;-76
2022/09/29 11:42:49;;;;;;;0.70;0.70;;;14.00;99.90;;;;;;4318078;32;20188;-78
2022/09/29 11:45:21;;;;;;;0.30;0.30;;;13.90;99.90;;;;;;4299105;32;20310;-75
2022/09/29 11:48:28;;;;;;;2.40;0.60;;;13.90;99.90;;;;;;4333555;32;20363;-75
2022/09/29 11:51:21;;;;;;;0.47;0.47;;;13.90;99.90;;;;;;4318697;32;20795;-76
2022/09/29 11:53:56;;;;;;;0.40;0.40;;;14.20;99.90;;;;;;4350566;32;20355;-76
2022/09/29 11:56:44;;;;;;;0.50;0.50;;;14.40;99.90;;;;;;4354111;32;20106;-76
2022/09/29 11:59:17;;;;;;;0.50;0.50;;;14.40;99.90;;;;;;4342049;32;20118;-77
2022/09/29 12:02:11;;;;;;;0.40;0.40;;;14.40;99.90;;;;;;4348288;32;20099;-77
2022/09/29 12:05:04;;;;;;;0.37;0.37;;;14.30;99.90;;;;;;4337123;32;20161;-77
2022/09/29 12:07:44;;;;;;;0.40;0.40;;;14.20;99.90;;;;;;4346669;32;20082;-77
2022/09/29 12:10:22;;;;;;;0.43;0.43;;;14.70;99.90;;;;;;4356850;32;20219;-77
2022/09/29 12:13:00;;;;;;;0.73;0.73;;;15.00;99.90;;;;;;4361130;32;20110;-76
2022/09/29 12:15:46;;;;;;;0.52;0.47;;;14.70;99.90;;;;;;4364261;32;20178;-76
2022/09/29 12:18:18;;;;;;;0.40;0.40;;;14.40;99.90;;;;;;4353028;32;20616;-76
2022/09/29 12:20:47;;;;;;;0.40;0.40;;;14.20;99.90;;;;;;4346541;32;20099;-76
2022/09/29 12:23:16;;;;;;;0.50;0.50;;;14.10;99.90;;;;;;4330853;32;20307;-76
2022/09/29 12:26:03;;;;;;;0.43;0.43;;;14.10;99.90;;;;;;4350357;32;20171;-76
2022/09/29 12:28:39;;;;;;;1.08;0.60;;;14.00;99.90;;;;;;4349535;32;21460;-76
2022/09/29 12:31:15;;;;;;;0.50;0.50;;;13.90;99.90;;;;;;4351810;32;20234;-76
2022/09/29 12:33:47;;;;;;;0.50;0.50;;;13.90;99.90;;;;;;4342012;32;20385;-77
2022/09/29 12:36:42;;;;;;;0.43;0.43;;;13.80;99.90;;;;;;4348378;32;20232;-75
2022/09/29 12:39:20;;;;;;;0.50;0.50;;;13.80;99.90;;;;;;4353371;32;20199;-75
2022/09/29 12:41:52;;;;;;;0.40;0.40;;;13.80;99.90;;;;;;4367186;32;20620;-76
2022/09/29 12:44:32;;;;;;;0.93;0.60;;;13.80;99.90;;;;;;4362605;32;20130;-76
2022/09/29 12:47:37;;;;;;;0.40;0.40;;;13.90;99.90;;;;;;4364836;32;20085;-75
2022/09/29 12:50:13;;;;;;;0.52;0.50;;;14.00;99.90;;;;;;4327040;32;20393;-75
2022/09/29 12:53:10;;;;;;;0.55;0.55;;;15.10;99.90;;;;;;4356229;32;20956;-75
2022/09/29 12:55:50;;;;;;;0.40;0.40;;;16.60;99.90;;;;;;4352647;32;20605;-76
2022/09/29 12:58:44;;;;;;;0.50;0.50;;;17.30;99.90;;;;;;4362552;32;20138;-76
2022/09/29 13:01:21;;;;;;;0.40;0.40;;;17.00;99.90;;;;;;4355312;32;20086;-77
2022/09/29 13:04:21;;;;;;;0.25;0.25;;;17.20;99.90;;;;;;4347956;32;20070;-76
2022/09/29 13:07:21;;;;;;;0.40;0.40;;;17.00;99.90;;;;;;4349073;32;20106;-76
2022/09/29 13:10:20;;;;;;;0.40;0.40;;;16.30;99.90;;;;;;4357837;32;20337;-76
2022/09/29 13:13:22;;;;;;;0.93;0.93;;;15.90;99.90;;;;;;4355152;32;20822;-75
2022/09/29 13:16:14;;;;;;;0.40;0.40;;;15.50;99.90;;;;;;4351084;32;20122;-75
2022/09/29 13:18:52;;;;;;;0.43;0.43;;;15.40;99.90;;;;;;4330292;32;20326;-76